sensor_id;sensor_type;location;lat;lon;timestamp;temperature;humidity
75091;DHT22;63674;48.048;8.306;2023-04-08T00:00:04;3.60;99.90
75091;DHT22;63674;48.048;8.306;2023-04-08T00:02:33;3.60;99.90
75091;DHT22;63674;48.048;8.306;2023-04-08T00:05:03;3.70;99.90
75091;DHT22;63674;48.048;8.306;2023-04-08T00:07:32;3.70;99.90
75091;DHT22;63674;48.048;8.306;2023-04-08T00:10:02;3.70;99.90
75091;DHT22;63674;48.048;8.306;2023-04-08T00:12:30;3.70;99.90
75091;DHT22;63674;48.048;8.306;2023-04-08T00:14:59;3.70;99.90
75091;DHT22;63674;48.048;8.306;2023-04-08T00:17:28;3.70;99.90
75091;DHT22;63674;48.048;8.306;2023-04-08T00:19:56;3.70;99.90
75091;DHT22;63674;48.048;8.306;2023-04-08T00:22:25;3.80;99.90
75091;DHT22;63674;48.048;8.306;2023-04-08T00:24:54;3.80;99.90
75091;DHT22;63674;48.048;8.306;2023-04-08T00:27:23;3.80;99.90
75091;DHT22;63674;48.048;8.306;2023-04-08T00:29:52;3.80;99.90
75091;DHT22;63674;48.048;8.306;2023-04-08T00:32:21;3.80;99.90
75091;DHT22;63674;48.048;8.306;2023-04-08T00:34:49;3.80;99.90
75091;DHT22;63674;48.048;8.306;2023-04-08T00:37:18;3.80;99.90
75091;DHT22;63674;48.048;8.306;2023-04-08T00:39:47;3.80;99.90
75091;DHT22;63674;48.048;8.306;2023-04-08T00:42:15;3.80;99.90
75091;DHT22;63674;48.048;8.306;2023-04-08T00:44:45;3.70;99.90
75091;DHT22;63674;48.048;8.306;2023-04-08T00:47:14;3.70;99.90
75091;DHT22;63674;48.048;8.306;2023-04-08T00:49:43;3.60;99.90
75091;DHT22;63674;48.048;8.306;2023-04-08T00:52:12;3.70;99.90
75091;DHT22;63674;48.048;8.306;2023-04-08T00:54:41;3.70;99.90
75091;DHT22;63674;48.048;8.306;2023-04-08T00:57:10;3.70;99.90
75091;DHT22;63674;48.048;8.306;2023-04-08T00:59:38;3.70;99.90
75091;DHT22;63674;48.048;8.306;2023-04-08T01:02:14;3.70;99.90
75091;DHT22;63674;48.048;8.306;2023-04-08T01:04:51;3.80;99.90
75091;DHT22;63674;48.048;8.306;2023-04-08T01:07:26;3.70;99.90
75091;DHT22;63674;48.048;8.306;2023-04-08T01:09:56;3.70;99.90
75091;DHT22;63674;48.048;8.306;2023-04-08T01:12:28;3.80;99.90
75091;DHT22;63674;48.048;8.306;2023-04-08T01:15:02;3.80;99.90
75091;DHT22;63674;48.048;8.306;2023-04-08T01:17:35;3.70;99.90
75091;DHT22;63674;48.048;8.306;2023-04-08T01:20:08;3.70;99.90
75091;DHT22;63674;48.048;8.306;2023-04-08T01:22:49;3.70;99.90
75091;DHT22;63674;48.048;8.306;2023-04-08T01:25:29;3.80;99.90
75091;DHT22;63674;48.048;8.306;2023-04-08T01:28:03;3.80;99.90
75091;DHT22;63674;48.048;8.306;2023-04-08T01:30:33;3.80;99.90
75091;DHT22;63674;48.048;8.306;2023-04-08T01:33:04;3.80;99.90
75091;DHT22;63674;48.048;8.306;2023-04-08T01:35:34;3.80;99.90
75091;DHT22;63674;48.048;8.306;2023-04-08T01:38:04;3.80;99.90
75091;DHT22;63674;48.048;8.306;2023-04-08T01:40:34;3.80;99.90
75091;DHT22;63674;48.048;8.306;2023-04-08T01:43:08;3.80;99.90
75091;DHT22;63674;48.048;8.306;2023-04-08T01:45:37;3.80;99.90
75091;DHT22;63674;48.048;8.306;2023-04-08T01:48:07;3.80;99.90
75091;DHT22;63674;48.048;8.306;2023-04-08T01:50:36;3.80;99.90
75091;DHT22;63674;48.048;8.306;2023-04-08T01:53:08;3.90;99.90
75091;DHT22;63674;48.048;8.306;2023-04-08T01:55:39;3.90;99.90
75091;DHT22;63674;48.048;8.306;2023-04-08T01:58:15;3.90;99.90
75091;DHT22;63674;48.048;8.306;2023-04-08T02:00:46;3.90;99.90
75091;DHT22;63674;48.048;8.306;2023-04-08T02:03:17;3.90;99.90
75091;DHT22;63674;48.048;8.306;2023-04-08T02:05:47;3.90;99.90
75091;DHT22;63674;48.048;8.306;2023-04-08T02:08:16;3.80;99.90
75091;DHT22;63674;48.048;8.306;2023-04-08T02:10:44;3.80;99.90
75091;DHT22;63674;48.048;8.306;2023-04-08T02:13:14;3.80;99.90
75091;DHT22;63674;48.048;8.306;2023-04-08T02:15:48;3.70;99.90
75091;DHT22;63674;48.048;8.306;2023-04-08T02:18:24;3.80;99.90
75091;DHT22;63674;48.048;8.306;2023-04-08T02:20:58;3.80;99.90
75091;DHT22;63674;48.048;8.306;2023-04-08T02:23:31;3.70;99.90
75091;DHT22;63674;48.048;8.306;2023-04-08T02:26:02;3.70;99.90
75091;DHT22;63674;48.048;8.306;2023-04-08T02:28:35;3.70;99.90
75091;DHT22;63674;48.048;8.306;2023-04-08T02:31:05;3.70;99.90
75091;DHT22;63674;48.048;8.306;2023-04-08T02:33:38;3.70;99.90
75091;DHT22;63674;48.048;8.306;2023-04-08T02:36:07;3.80;99.90
75091;DHT22;63674;48.048;8.306;2023-04-08T02:38:36;3.80;99.90
75091;DHT22;63674;48.048;8.306;2023-04-08T02:41:05;3.80;99.90
75091;DHT22;63674;48.048;8.306;2023-04-08T02:43:35;3.90;99.90
75091;DHT22;63674;48.048;8.306;2023-04-08T02:46:04;3.90;99.90
75091;DHT22;63674;48.048;8.306;2023-04-08T02:48:33;3.90;99.90
75091;DHT22;63674;48.048;8.306;2023-04-08T02:51:01;3.80;99.90
75091;DHT22;63674;48.048;8.306;2023-04-08T02:53:30;3.80;99.90
75091;DHT22;63674;48.048;8.306;2023-04-08T02:55:59;3.70;99.90
75091;DHT22;63674;48.048;8.306;2023-04-08T02:58:27;3.70;99.90
75091;DHT22;63674;48.048;8.306;2023-04-08T03:00:57;3.70;99.90
75091;DHT22;63674;48.048;8.306;2023-04-08T03:03:26;3.80;99.90
75091;DHT22;63674;48.048;8.306;2023-04-08T03:05:56;3.80;99.90
75091;DHT22;63674;48.048;8.306;2023-04-08T03:08:25;3.80;99.90
75091;DHT22;63674;48.048;8.306;2023-04-08T03:10:53;3.90;99.90
75091;DHT22;63674;48.048;8.306;2023-04-08T03:13:22;3.90;99.90
75091;DHT22;63674;48.048;8.306;2023-04-08T03:15:50;3.90;99.90
75091;DHT22;63674;48.048;8.306;2023-04-08T03:18:20;3.90;99.90
75091;DHT22;63674;48.048;8.306;2023-04-08T03:20:48;4.00;99.90
75091;DHT22;63674;48.048;8.306;2023-04-08T03:23:17;4.00;99.90
75091;DHT22;63674;48.048;8.306;2023-04-08T03:25:45;4.10;99.90
75091;DHT22;63674;48.048;8.306;2023-04-08T03:28:14;4.00;99.90
75091;DHT22;63674;48.048;8.306;2023-04-08T03:30:42;4.00;99.90
75091;DHT22;63674;48.048;8.306;2023-04-08T03:33:11;4.00;99.90
75091;DHT22;63674;48.048;8.306;2023-04-08T03:35:41;4.10;99.90
75091;DHT22;63674;48.048;8.306;2023-04-08T03:38:09;4.10;99.90
75091;DHT22;63674;48.048;8.306;2023-04-08T03:40:38;4.10;99.90
75091;DHT22;63674;48.048;8.306;2023-04-08T03:43:06;4.10;99.90
75091;DHT22;63674;48.048;8.306;2023-04-08T03:45:35;4.10;99.90
75091;DHT22;63674;48.048;8.306;2023-04-08T03:48:04;4.10;99.90
75091;DHT22;63674;48.048;8.306;2023-04-08T03:50:33;4.10;99.90
75091;DHT22;63674;48.048;8.306;2023-04-08T03:53:03;4.00;99.90
75091;DHT22;63674;48.048;8.306;2023-04-08T03:55:31;3.80;99.90
75091;DHT22;63674;48.048;8.306;2023-04-08T03:58:00;3.80;99.90
75091;DHT22;63674;48.048;8.306;2023-04-08T04:00:28;3.80;99.90
75091;DHT22;63674;48.048;8.306;2023-04-08T04:02:57;3.80;99.90
75091;DHT22;63674;48.048;8.306;2023-04-08T04:05:26;3.80;99.90
75091;DHT22;63674;48.048;8.306;2023-04-08T04:07:54;3.90;99.90
75091;DHT22;63674;48.048;8.306;2023-04-08T04:10:25;3.90;99.90
75091;DHT22;63674;48.048;8.306;2023-04-08T04:12:54;3.90;99.90
75091;DHT22;63674;48.048;8.306;2023-04-08T04:15:22;4.00;99.90
75091;DHT22;63674;48.048;8.306;2023-04-08T04:17:51;4.00;99.90
75091;DHT22;63674;48.048;8.306;2023-04-08T04:20:20;4.00;99.90
75091;DHT22;63674;48.048;8.306;2023-04-08T04:22:48;4.00;99.90
75091;DHT22;63674;48.048;8.306;2023-04-08T04:25:17;4.00;99.90
75091;DHT22;63674;48.048;8.306;2023-04-08T04:27:47;3.90;99.90
75091;DHT22;63674;48.048;8.306;2023-04-08T04:30:16;4.00;99.90
75091;DHT22;63674;48.048;8.306;2023-04-08T04:32:45;4.00;99.90
75091;DHT22;63674;48.048;8.306;2023-04-08T04:35:14;3.90;99.90
75091;DHT22;63674;48.048;8.306;2023-04-08T04:37:42;3.90;99.90
75091;DHT22;63674;48.048;8.306;2023-04-08T04:40:11;3.90;99.90
75091;DHT22;63674;48.048;8.306;2023-04-08T04:42:40;3.90;99.90
75091;DHT22;63674;48.048;8.306;2023-04-08T04:45:10;3.90;99.90
75091;DHT22;63674;48.048;8.306;2023-04-08T04:47:39;3.90;99.90
75091;DHT22;63674;48.048;8.306;2023-04-08T04:50:08;3.90;99.90
75091;DHT22;63674;48.048;8.306;2023-04-08T04:52:37;3.90;99.90
75091;DHT22;63674;48.048;8.306;2023-04-08T04:55:06;4.00;99.90
75091;DHT22;63674;48.048;8.306;2023-04-08T04:57:35;4.00;99.90
75091;DHT22;63674;48.048;8.306;2023-04-08T05:00:05;4.00;99.90
75091;DHT22;63674;48.048;8.306;2023-04-08T05:02:36;4.00;99.90
75091;DHT22;63674;48.048;8.306;2023-04-08T05:05:05;3.90;99.90
75091;DHT22;63674;48.048;8.306;2023-04-08T05:07:35;3.90;99.90
75091;DHT22;63674;48.048;8.306;2023-04-08T05:10:04;3.80;99.90
75091;DHT22;63674;48.048;8.306;2023-04-08T05:12:33;3.80;99.90
75091;DHT22;63674;48.048;8.306;2023-04-08T05:15:04;3.70;99.90
75091;DHT22;63674;48.048;8.306;2023-04-08T05:17:33;3.70;99.90
75091;DHT22;63674;48.048;8.306;2023-04-08T05:20:04;3.70;99.90
75091;DHT22;63674;48.048;8.306;2023-04-08T05:22:33;3.70;99.90
75091;DHT22;63674;48.048;8.306;2023-04-08T05:25:03;3.80;99.90
75091;DHT22;63674;48.048;8.306;2023-04-08T05:27:31;3.80;99.90
75091;DHT22;63674;48.048;8.306;2023-04-08T05:30:00;3.80;99.90
75091;DHT22;63674;48.048;8.306;2023-04-08T05:32:29;3.80;99.90
75091;DHT22;63674;48.048;8.306;2023-04-08T05:34:57;3.90;99.90
75091;DHT22;63674;48.048;8.306;2023-04-08T05:37:31;4.00;99.90
75091;DHT22;63674;48.048;8.306;2023-04-08T05:39:59;4.10;99.90
75091;DHT22;63674;48.048;8.306;2023-04-08T05:42:28;4.10;99.90
75091;DHT22;63674;48.048;8.306;2023-04-08T05:44:56;4.20;99.90
75091;DHT22;63674;48.048;8.306;2023-04-08T05:47:25;4.30;99.90
75091;DHT22;63674;48.048;8.306;2023-04-08T05:49:53;4.20;99.90
75091;DHT22;63674;48.048;8.306;2023-04-08T05:52:23;4.30;99.90
75091;DHT22;63674;48.048;8.306;2023-04-08T05:54:52;4.30;99.90
75091;DHT22;63674;48.048;8.306;2023-04-08T05:57:20;4.40;99.90
75091;DHT22;63674;48.048;8.306;2023-04-08T05:59:49;4.40;99.90
75091;DHT22;63674;48.048;8.306;2023-04-08T06:02:19;4.50;99.90
75091;DHT22;63674;48.048;8.306;2023-04-08T06:04:48;4.40;99.90
75091;DHT22;63674;48.048;8.306;2023-04-08T06:07:17;4.40;99.90
75091;DHT22;63674;48.048;8.306;2023-04-08T06:09:47;4.40;99.90
75091;DHT22;63674;48.048;8.306;2023-04-08T06:12:16;4.40;99.90
75091;DHT22;63674;48.048;8.306;2023-04-08T06:14:44;4.40;99.90
75091;DHT22;63674;48.048;8.306;2023-04-08T06:17:13;4.50;99.90
75091;DHT22;63674;48.048;8.306;2023-04-08T06:19:41;4.60;99.90
75091;DHT22;63674;48.048;8.306;2023-04-08T06:22:10;4.60;99.90
75091;DHT22;63674;48.048;8.306;2023-04-08T06:24:39;4.60;99.90
75091;DHT22;63674;48.048;8.306;2023-04-08T06:27:09;4.70;99.90
75091;DHT22;63674;48.048;8.306;2023-04-08T06:29:37;4.70;99.90
75091;DHT22;63674;48.048;8.306;2023-04-08T06:32:08;4.80;99.90
75091;DHT22;63674;48.048;8.306;2023-04-08T06:34:37;4.80;99.90
75091;DHT22;63674;48.048;8.306;2023-04-08T06:37:07;4.90;99.90
75091;DHT22;63674;48.048;8.306;2023-04-08T06:39:35;4.90;99.90
75091;DHT22;63674;48.048;8.306;2023-04-08T06:42:04;4.90;99.90
75091;DHT22;63674;48.048;8.306;2023-04-08T06:44:34;4.80;99.90
75091;DHT22;63674;48.048;8.306;2023-04-08T06:47:02;4.90;99.90
75091;DHT22;63674;48.048;8.306;2023-04-08T06:49:31;4.90;99.90
75091;DHT22;63674;48.048;8.306;2023-04-08T06:51:59;4.90;99.90
75091;DHT22;63674;48.048;8.306;2023-04-08T06:54:28;4.90;99.90
75091;DHT22;63674;48.048;8.306;2023-04-08T06:56:57;5.00;99.90
75091;DHT22;63674;48.048;8.306;2023-04-08T06:59:25;5.10;99.90
75091;DHT22;63674;48.048;8.306;2023-04-08T07:01:58;5.20;99.90
75091;DHT22;63674;48.048;8.306;2023-04-08T07:04:26;5.30;99.90
75091;DHT22;63674;48.048;8.306;2023-04-08T07:06:55;5.40;99.90
75091;DHT22;63674;48.048;8.306;2023-04-08T07:09:23;5.50;99.90
75091;DHT22;63674;48.048;8.306;2023-04-08T07:11:52;5.60;99.90
75091;DHT22;63674;48.048;8.306;2023-04-08T07:14:21;5.70;99.90
75091;DHT22;63674;48.048;8.306;2023-04-08T07:16:50;5.80;99.90
75091;DHT22;63674;48.048;8.306;2023-04-08T07:19:20;5.80;99.90
75091;DHT22;63674;48.048;8.306;2023-04-08T07:21:50;5.80;99.90
75091;DHT22;63674;48.048;8.306;2023-04-08T07:24:19;5.80;99.90
75091;DHT22;63674;48.048;8.306;2023-04-08T07:26:47;5.90;99.90
75091;DHT22;63674;48.048;8.306;2023-04-08T07:29:16;5.90;99.90
75091;DHT22;63674;48.048;8.306;2023-04-08T07:31:45;5.90;99.90
75091;DHT22;63674;48.048;8.306;2023-04-08T07:34:13;5.90;99.90
75091;DHT22;63674;48.048;8.306;2023-04-08T07:36:43;5.80;99.90
75091;DHT22;63674;48.048;8.306;2023-04-08T07:39:12;5.80;99.90
75091;DHT22;63674;48.048;8.306;2023-04-08T07:41:41;5.80;99.90
75091;DHT22;63674;48.048;8.306;2023-04-08T07:44:10;5.90;99.90
75091;DHT22;63674;48.048;8.306;2023-04-08T07:46:59;5.80;99.90
75091;DHT22;63674;48.048;8.306;2023-04-08T07:49:27;5.80;99.90
75091;DHT22;63674;48.048;8.306;2023-04-08T07:51:57;5.90;99.90
75091;DHT22;63674;48.048;8.306;2023-04-08T07:54:26;5.90;99.90
75091;DHT22;63674;48.048;8.306;2023-04-08T07:56:55;6.00;99.90
75091;DHT22;63674;48.048;8.306;2023-04-08T07:59:26;5.90;99.90
75091;DHT22;63674;48.048;8.306;2023-04-08T08:01:55;5.90;99.90
75091;DHT22;63674;48.048;8.306;2023-04-08T08:04:24;6.00;99.90
75091;DHT22;63674;48.048;8.306;2023-04-08T08:06:52;6.10;99.90
75091;DHT22;63674;48.048;8.306;2023-04-08T08:09:22;6.30;99.90
75091;DHT22;63674;48.048;8.306;2023-04-08T08:11:51;6.40;99.90
75091;DHT22;63674;48.048;8.306;2023-04-08T08:14:20;6.60;99.90
75091;DHT22;63674;48.048;8.306;2023-04-08T08:16:49;6.60;99.90
75091;DHT22;63674;48.048;8.306;2023-04-08T08:19:18;6.70;99.90
75091;DHT22;63674;48.048;8.306;2023-04-08T08:21:47;6.60;99.90
75091;DHT22;63674;48.048;8.306;2023-04-08T08:24:15;6.70;99.90
75091;DHT22;63674;48.048;8.306;2023-04-08T08:26:45;6.60;99.90
75091;DHT22;63674;48.048;8.306;2023-04-08T08:29:15;6.70;99.90
75091;DHT22;63674;48.048;8.306;2023-04-08T08:31:43;6.70;99.90
75091;DHT22;63674;48.048;8.306;2023-04-08T08:34:12;6.70;99.90
75091;DHT22;63674;48.048;8.306;2023-04-08T08:36:40;6.70;99.90
75091;DHT22;63674;48.048;8.306;2023-04-08T08:39:09;6.70;99.90
75091;DHT22;63674;48.048;8.306;2023-04-08T08:41:37;6.60;99.90
75091;DHT22;63674;48.048;8.306;2023-04-08T08:44:09;6.60;99.90
75091;DHT22;63674;48.048;8.306;2023-04-08T08:46:42;6.70;99.90
75091;DHT22;63674;48.048;8.306;2023-04-08T08:49:11;6.80;99.90
75091;DHT22;63674;48.048;8.306;2023-04-08T08:51:40;6.90;99.90
75091;DHT22;63674;48.048;8.306;2023-04-08T08:54:09;6.80;99.90
75091;DHT22;63674;48.048;8.306;2023-04-08T08:56:37;6.90;99.90
75091;DHT22;63674;48.048;8.306;2023-04-08T08:59:08;6.90;99.90
75091;DHT22;63674;48.048;8.306;2023-04-08T09:01:37;6.90;99.90
75091;DHT22;63674;48.048;8.306;2023-04-08T09:04:09;6.90;99.90
75091;DHT22;63674;48.048;8.306;2023-04-08T09:06:40;6.90;99.90
75091;DHT22;63674;48.048;8.306;2023-04-08T09:09:09;6.90;99.90
75091;DHT22;63674;48.048;8.306;2023-04-08T09:11:38;6.80;99.90
75091;DHT22;63674;48.048;8.306;2023-04-08T09:14:19;6.80;99.90
75091;DHT22;63674;48.048;8.306;2023-04-08T09:16:49;6.80;99.90
75091;DHT22;63674;48.048;8.306;2023-04-08T09:19:18;6.80;99.90
75091;DHT22;63674;48.048;8.306;2023-04-08T09:22:03;6.70;99.90
75091;DHT22;63674;48.048;8.306;2023-04-08T09:24:33;6.70;99.90
75091;DHT22;63674;48.048;8.306;2023-04-08T09:27:03;6.80;99.90
75091;DHT22;63674;48.048;8.306;2023-04-08T09:29:34;6.90;99.90
75091;DHT22;63674;48.048;8.306;2023-04-08T09:32:08;6.90;99.90
75091;DHT22;63674;48.048;8.306;2023-04-08T09:34:36;6.90;99.90
75091;DHT22;63674;48.048;8.306;2023-04-08T09:37:05;6.90;99.90
75091;DHT22;63674;48.048;8.306;2023-04-08T09:39:34;6.80;99.90
75091;DHT22;63674;48.048;8.306;2023-04-08T09:42:04;6.70;99.90
75091;DHT22;63674;48.048;8.306;2023-04-08T09:44:37;6.60;99.90
75091;DHT22;63674;48.048;8.306;2023-04-08T09:47:11;6.60;99.90
75091;DHT22;63674;48.048;8.306;2023-04-08T09:49:54;6.50;99.90
75091;DHT22;63674;48.048;8.306;2023-04-08T09:52:29;6.50;99.90
75091;DHT22;63674;48.048;8.306;2023-04-08T09:55:02;6.50;99.90
75091;DHT22;63674;48.048;8.306;2023-04-08T09:57:39;6.60;99.90
75091;DHT22;63674;48.048;8.306;2023-04-08T10:00:13;6.60;99.90
75091;DHT22;63674;48.048;8.306;2023-04-08T10:02:51;6.60;99.90
75091;DHT22;63674;48.048;8.306;2023-04-08T10:05:24;6.70;99.90
75091;DHT22;63674;48.048;8.306;2023-04-08T10:07:53;6.70;99.90
75091;DHT22;63674;48.048;8.306;2023-04-08T10:10:23;6.70;99.90
75091;DHT22;63674;48.048;8.306;2023-04-08T10:12:53;6.60;99.90
75091;DHT22;63674;48.048;8.306;2023-04-08T10:15:24;6.60;99.90
75091;DHT22;63674;48.048;8.306;2023-04-08T10:17:55;6.60;99.90
75091;DHT22;63674;48.048;8.306;2023-04-08T10:20:41;6.60;99.90
75091;DHT22;63674;48.048;8.306;2023-04-08T10:23:11;6.60;99.90
75091;DHT22;63674;48.048;8.306;2023-04-08T10:25:41;6.60;99.90
75091;DHT22;63674;48.048;8.306;2023-04-08T10:28:26;6.30;99.90
75091;DHT22;63674;48.048;8.306;2023-04-08T10:30:57;6.40;99.90
75091;DHT22;63674;48.048;8.306;2023-04-08T10:33:31;6.50;99.90
75091;DHT22;63674;48.048;8.306;2023-04-08T10:36:10;6.70;99.90
75091;DHT22;63674;48.048;8.306;2023-04-08T10:38:41;6.80;99.90
75091;DHT22;63674;48.048;8.306;2023-04-08T10:41:10;6.90;99.90
75091;DHT22;63674;48.048;8.306;2023-04-08T10:43:40;7.20;99.90
75091;DHT22;63674;48.048;8.306;2023-04-08T10:46:10;7.40;99.90
75091;DHT22;63674;48.048;8.306;2023-04-08T10:48:39;7.60;99.90
75091;DHT22;63674;48.048;8.306;2023-04-08T10:51:07;7.70;99.90
75091;DHT22;63674;48.048;8.306;2023-04-08T10:53:37;7.60;99.90
75091;DHT22;63674;48.048;8.306;2023-04-08T10:56:08;7.60;99.90
75091;DHT22;63674;48.048;8.306;2023-04-08T10:58:47;7.60;99.90
75091;DHT22;63674;48.048;8.306;2023-04-08T11:01:18;7.60;99.90
75091;DHT22;63674;48.048;8.306;2023-04-08T11:03:47;7.60;99.90
75091;DHT22;63674;48.048;8.306;2023-04-08T11:06:17;7.60;99.90
75091;DHT22;63674;48.048;8.306;2023-04-08T11:08:45;7.40;99.90
75091;DHT22;63674;48.048;8.306;2023-04-08T11:11:14;7.40;99.90
75091;DHT22;63674;48.048;8.306;2023-04-08T11:13:44;7.30;99.90
75091;DHT22;63674;48.048;8.306;2023-04-08T11:16:21;7.20;99.90
75091;DHT22;63674;48.048;8.306;2023-04-08T11:18:50;7.10;99.90
75091;DHT22;63674;48.048;8.306;2023-04-08T11:21:19;7.10;99.90
75091;DHT22;63674;48.048;8.306;2023-04-08T11:23:48;7.10;99.90
75091;DHT22;63674;48.048;8.306;2023-04-08T11:26:19;7.00;99.90
75091;DHT22;63674;48.048;8.306;2023-04-08T11:28:48;7.00;99.90
75091;DHT22;63674;48.048;8.306;2023-04-08T11:31:18;7.10;99.90
75091;DHT22;63674;48.048;8.306;2023-04-08T11:33:53;7.10;99.90
75091;DHT22;63674;48.048;8.306;2023-04-08T11:36:22;7.20;99.90
75091;DHT22;63674;48.048;8.306;2023-04-08T11:38:53;7.30;99.90
75091;DHT22;63674;48.048;8.306;2023-04-08T11:41:22;7.40;99.90
75091;DHT22;63674;48.048;8.306;2023-04-08T11:43:54;7.50;99.90
75091;DHT22;63674;48.048;8.306;2023-04-08T11:46:24;7.60;99.90
75091;DHT22;63674;48.048;8.306;2023-04-08T11:49:01;7.70;99.90
75091;DHT22;63674;48.048;8.306;2023-04-08T11:51:31;7.90;99.90
75091;DHT22;63674;48.048;8.306;2023-04-08T11:54:03;7.90;99.90
75091;DHT22;63674;48.048;8.306;2023-04-08T11:56:43;8.10;99.90
75091;DHT22;63674;48.048;8.306;2023-04-08T11:59:13;8.30;99.90
75091;DHT22;63674;48.048;8.306;2023-04-08T12:01:43;8.40;99.90
75091;DHT22;63674;48.048;8.306;2023-04-08T12:04:12;8.20;99.90
75091;DHT22;63674;48.048;8.306;2023-04-08T12:06:41;8.30;99.90
75091;DHT22;63674;48.048;8.306;2023-04-08T12:09:12;8.30;99.90
75091;DHT22;63674;48.048;8.306;2023-04-08T12:11:41;8.30;99.90
75091;DHT22;63674;48.048;8.306;2023-04-08T12:14:10;8.30;99.90
75091;DHT22;63674;48.048;8.306;2023-04-08T12:16:38;8.20;99.90
75091;DHT22;63674;48.048;8.306;2023-04-08T12:19:08;8.10;99.90
75091;DHT22;63674;48.048;8.306;2023-04-08T12:21:37;8.00;99.90
75091;DHT22;63674;48.048;8.306;2023-04-08T12:24:06;8.00;99.90
75091;DHT22;63674;48.048;8.306;2023-04-08T12:26:34;7.90;99.90
75091;DHT22;63674;48.048;8.306;2023-04-08T12:29:02;7.70;99.90
75091;DHT22;63674;48.048;8.306;2023-04-08T12:31:31;7.50;99.90
75091;DHT22;63674;48.048;8.306;2023-04-08T12:34:00;7.50;99.90
75091;DHT22;63674;48.048;8.306;2023-04-08T12:36:29;7.50;99.90
75091;DHT22;63674;48.048;8.306;2023-04-08T12:38:59;7.60;99.90
75091;DHT22;63674;48.048;8.306;2023-04-08T12:41:27;7.80;99.90
75091;DHT22;63674;48.048;8.306;2023-04-08T12:43:56;8.00;99.90
75091;DHT22;63674;48.048;8.306;2023-04-08T12:46:24;8.20;99.90
75091;DHT22;63674;48.048;8.306;2023-04-08T12:48:53;8.30;99.90
75091;DHT22;63674;48.048;8.306;2023-04-08T12:51:31;8.30;99.90
75091;DHT22;63674;48.048;8.306;2023-04-08T12:54:00;8.40;99.90
75091;DHT22;63674;48.048;8.306;2023-04-08T12:56:29;8.30;99.90
75091;DHT22;63674;48.048;8.306;2023-04-08T12:58:59;8.20;99.90
75091;DHT22;63674;48.048;8.306;2023-04-08T13:01:27;8.30;99.90
75091;DHT22;63674;48.048;8.306;2023-04-08T13:03:57;8.40;99.90
75091;DHT22;63674;48.048;8.306;2023-04-08T13:06:26;8.50;99.90
75091;DHT22;63674;48.048;8.306;2023-04-08T13:08:56;8.50;99.90
75091;DHT22;63674;48.048;8.306;2023-04-08T13:11:24;8.50;99.90
75091;DHT22;63674;48.048;8.306;2023-04-08T13:13:53;8.50;99.90
75091;DHT22;63674;48.048;8.306;2023-04-08T13:16:22;8.50;99.90
75091;DHT22;63674;48.048;8.306;2023-04-08T13:18:50;8.30;99.90
75091;DHT22;63674;48.048;8.306;2023-04-08T13:21:19;8.30;99.90
75091;DHT22;63674;48.048;8.306;2023-04-08T13:23:48;8.30;99.90
75091;DHT22;63674;48.048;8.306;2023-04-08T13:26:17;8.20;99.90
75091;DHT22;63674;48.048;8.306;2023-04-08T13:28:46;8.20;99.90
75091;DHT22;63674;48.048;8.306;2023-04-08T13:31:23;8.20;99.90
75091;DHT22;63674;48.048;8.306;2023-04-08T13:33:51;8.10;99.90
75091;DHT22;63674;48.048;8.306;2023-04-08T13:36:24;8.10;99.90
75091;DHT22;63674;48.048;8.306;2023-04-08T13:38:54;8.00;99.90
75091;DHT22;63674;48.048;8.306;2023-04-08T13:41:24;8.00;99.90
75091;DHT22;63674;48.048;8.306;2023-04-08T13:43:54;8.00;99.90
75091;DHT22;63674;48.048;8.306;2023-04-08T13:46:23;8.00;99.90
75091;DHT22;63674;48.048;8.306;2023-04-08T13:48:52;8.00;99.90
75091;DHT22;63674;48.048;8.306;2023-04-08T13:51:21;8.10;99.90
75091;DHT22;63674;48.048;8.306;2023-04-08T13:53:49;8.10;99.90
75091;DHT22;63674;48.048;8.306;2023-04-08T13:56:18;8.10;99.90
75091;DHT22;63674;48.048;8.306;2023-04-08T13:58:48;8.00;99.90
75091;DHT22;63674;48.048;8.306;2023-04-08T14:01:23;8.00;99.90
75091;DHT22;63674;48.048;8.306;2023-04-08T14:03:52;7.90;99.90
75091;DHT22;63674;48.048;8.306;2023-04-08T14:06:20;7.80;99.90
75091;DHT22;63674;48.048;8.306;2023-04-08T14:08:49;7.70;99.90
75091;DHT22;63674;48.048;8.306;2023-04-08T14:11:18;7.60;99.90
75091;DHT22;63674;48.048;8.306;2023-04-08T14:13:48;7.50;99.90
75091;DHT22;63674;48.048;8.306;2023-04-08T14:16:17;7.50;99.90
75091;DHT22;63674;48.048;8.306;2023-04-08T14:18:46;7.50;99.90
75091;DHT22;63674;48.048;8.306;2023-04-08T14:21:14;7.50;99.90
75091;DHT22;63674;48.048;8.306;2023-04-08T14:23:44;7.50;99.90
75091;DHT22;63674;48.048;8.306;2023-04-08T14:26:12;7.50;99.90
75091;DHT22;63674;48.048;8.306;2023-04-08T14:28:41;7.40;99.90
75091;DHT22;63674;48.048;8.306;2023-04-08T14:31:11;7.20;99.90
75091;DHT22;63674;48.048;8.306;2023-04-08T14:33:40;7.20;99.90
75091;DHT22;63674;48.048;8.306;2023-04-08T14:36:09;7.20;99.90
75091;DHT22;63674;48.048;8.306;2023-04-08T14:38:38;7.30;99.90
75091;DHT22;63674;48.048;8.306;2023-04-08T14:41:06;7.30;99.90
75091;DHT22;63674;48.048;8.306;2023-04-08T14:43:34;7.40;99.90
75091;DHT22;63674;48.048;8.306;2023-04-08T14:46:03;7.40;99.90
75091;DHT22;63674;48.048;8.306;2023-04-08T14:48:33;7.40;99.90
75091;DHT22;63674;48.048;8.306;2023-04-08T14:51:02;7.40;99.90
75091;DHT22;63674;48.048;8.306;2023-04-08T14:53:30;7.40;99.90
75091;DHT22;63674;48.048;8.306;2023-04-08T14:55:59;7.50;99.90
75091;DHT22;63674;48.048;8.306;2023-04-08T14:58:27;7.50;99.90
75091;DHT22;63674;48.048;8.306;2023-04-08T15:00:56;7.30;99.90
75091;DHT22;63674;48.048;8.306;2023-04-08T15:03:24;7.30;99.90
75091;DHT22;63674;48.048;8.306;2023-04-08T15:05:54;7.20;99.90
75091;DHT22;63674;48.048;8.306;2023-04-08T15:08:23;7.20;99.90
75091;DHT22;63674;48.048;8.306;2023-04-08T15:10:52;7.30;99.90
75091;DHT22;63674;48.048;8.306;2023-04-08T15:13:20;7.30;99.90
75091;DHT22;63674;48.048;8.306;2023-04-08T15:15:49;7.40;99.90
75091;DHT22;63674;48.048;8.306;2023-04-08T15:18:17;7.50;99.90
75091;DHT22;63674;48.048;8.306;2023-04-08T15:20:46;7.60;99.90
75091;DHT22;63674;48.048;8.306;2023-04-08T15:23:16;7.70;99.90
75091;DHT22;63674;48.048;8.306;2023-04-08T15:25:44;7.80;99.90
75091;DHT22;63674;48.048;8.306;2023-04-08T15:28:14;7.90;99.90
75091;DHT22;63674;48.048;8.306;2023-04-08T15:30:43;7.90;99.90
75091;DHT22;63674;48.048;8.306;2023-04-08T15:33:11;7.80;99.90
75091;DHT22;63674;48.048;8.306;2023-04-08T15:35:44;7.80;99.90
75091;DHT22;63674;48.048;8.306;2023-04-08T15:38:13;7.80;99.90
75091;DHT22;63674;48.048;8.306;2023-04-08T15:40:43;7.90;99.90
75091;DHT22;63674;48.048;8.306;2023-04-08T15:43:14;7.90;99.90
75091;DHT22;63674;48.048;8.306;2023-04-08T15:45:42;8.00;99.90
75091;DHT22;63674;48.048;8.306;2023-04-08T15:48:12;8.00;99.90
75091;DHT22;63674;48.048;8.306;2023-04-08T15:50:41;8.10;99.90
75091;DHT22;63674;48.048;8.306;2023-04-08T15:53:10;8.10;99.90
75091;DHT22;63674;48.048;8.306;2023-04-08T15:55:38;8.00;99.90
75091;DHT22;63674;48.048;8.306;2023-04-08T15:58:08;8.00;99.90
75091;DHT22;63674;48.048;8.306;2023-04-08T16:00:37;8.00;99.90